Startpagina
METAR-TAF:

METAR-TAF

Vliegvelden :

Luchthaven Katowice

Katowice, Polen

breedte: 50-28-27N, lengte: 019-04-48E, hoogte: 284 m

Actueel weer

Dit bericht is 12 minuten geleden gemaakt, om 17:30 UTC
Wind 5 kt uit het zuidzuidwesten
Temperatuur -2°C
Vochtigheid 93%
Druk 1018 hPa
Zicht: 3000 m
Geheel bewolkt op 400 ft
nevel

METAR: EPKT 261730Z 20005KT 3000 BR OVC004 M02/M03 Q1018

Tijdstip: 18:42 (17:42 UTC)

Verwachting

Dit bericht is 12 minuten geleden gemaakt, om 17:30 UTC
Verwachting geldig van 26 om 18 UTC tot 27 om 18 UTC
Wind 4 kt uit het zuidzuidwesten
Zicht: 4000 m
Geheel bewolkt op 500 ft
nevel
Tijdelijke
van 26 om 18 UTC tot 27 om 07 UTC
Zicht: 1200 m
Geheel bewolkt op 200 ft
nevel
Wijzigt naar
van 27 om 09 UTC tot 27 om 11 UTC
Zicht: 7000 m
Gebroken wolken op 1300 ft
Wijzigt naar
van 27 om 15 UTC tot 27 om 17 UTC
Zicht: 2000 m
Gebroken wolken op 700 ft
nevel

TAF: EPKT 261730Z 2618/2718 21004KT 4000 BR OVC005 TEMPO 2618/2707 1200 BR OVC002 BECMG 2709/2711 7000 BKN013 BECMG 2715/2717 2000 BR BKN007

Waarnemingen en weersverwachtingen van meer dan 4000 vliegvelden (METAR en TAF).

De beschikbare stations zijn de gele en rode punten op de kaart.

Ga met uw muis naar het station om de naam te zien.

Klik dan om waarnemingen en weersverwachtingen te zien.

kaart wijzigen: klik op de groene knoppen met een zwart kruis om in te zoomen, op de groene knop met een streepje om uit te zoomen of op de groene pijlen voor aangrenzende kaarten.


METAR-TAF: